Terminal Aerodrome Forecast
Issued by NWS

Home | Current Version | Previous Version | Text Only | Print | Product List | Glossary On
Versions: 1 2 3 4 5 6 7 8 9 10 11 12 13 14 15
000
FTUS42 KMLB 270500
TAFSUA
TAF
KSUA 270537Z 2706/2806 05008KT P6SM FEW040
     FM271500 04010KT P6SM SCT040 SCT120
     FM272300 06007KT P6SM SCT040=

USA.gov is the U.S. government's official web portal to all federal, state and local government web resources and services.